sensor_id;sensor_type;location;lat;lon;timestamp;P1;durP1;ratioP1;P2;durP2;ratioP2
59998;SDS011;45859;51.378;6.736;2024-01-10T00:01:34;12.10;;;2.40;;
59998;SDS011;45859;51.378;6.736;2024-01-10T00:04:00;11.43;;;3.30;;
59998;SDS011;45859;51.378;6.736;2024-01-10T00:06:26;5.37;;;2.43;;
59998;SDS011;45859;51.378;6.736;2024-01-10T00:08:52;6.93;;;3.10;;
59998;SDS011;45859;51.378;6.736;2024-01-10T00:11:18;9.23;;;3.17;;
59998;SDS011;45859;51.378;6.736;2024-01-10T00:13:44;5.53;;;2.67;;
59998;SDS011;45859;51.378;6.736;2024-01-10T00:16:14;4.70;;;2.33;;
59998;SDS011;45859;51.378;6.736;2024-01-10T00:18:40;7.65;;;2.70;;
59998;SDS011;45859;51.378;6.736;2024-01-10T00:21:06;2.53;;;1.73;;
59998;SDS011;45859;51.378;6.736;2024-01-10T00:23:32;5.43;;;2.97;;
59998;SDS011;45859;51.378;6.736;2024-01-10T00:25:58;5.33;;;2.53;;
59998;SDS011;45859;51.378;6.736;2024-01-10T00:28:25;6.53;;;2.43;;
59998;SDS011;45859;51.378;6.736;2024-01-10T00:30:51;7.23;;;3.20;;
59998;SDS011;45859;51.378;6.736;2024-01-10T00:33:17;5.67;;;2.20;;
59998;SDS011;45859;51.378;6.736;2024-01-10T00:35:43;6.40;;;2.67;;
59998;SDS011;45859;51.378;6.736;2024-01-10T00:38:09;6.07;;;2.03;;
59998;SDS011;45859;51.378;6.736;2024-01-10T00:40:35;5.93;;;2.23;;
59998;SDS011;45859;51.378;6.736;2024-01-10T00:43:02;5.13;;;1.90;;
59998;SDS011;45859;51.378;6.736;2024-01-10T00:45:29;5.07;;;2.80;;
59998;SDS011;45859;51.378;6.736;2024-01-10T00:47:55;5.60;;;2.70;;
59998;SDS011;45859;51.378;6.736;2024-01-10T00:50:21;6.50;;;2.60;;
59998;SDS011;45859;51.378;6.736;2024-01-10T00:52:46;5.03;;;3.00;;
59998;SDS011;45859;51.378;6.736;2024-01-10T00:55:12;3.70;;;2.23;;
59998;SDS011;45859;51.378;6.736;2024-01-10T00:57:39;7.30;;;2.67;;
59998;SDS011;45859;51.378;6.736;2024-01-10T01:00:05;6.57;;;2.50;;
59998;SDS011;45859;51.378;6.736;2024-01-10T01:02:31;3.53;;;1.97;;
59998;SDS011;45859;51.378;6.736;2024-01-10T01:04:57;7.87;;;2.60;;
59998;SDS011;45859;51.378;6.736;2024-01-10T01:07:23;8.93;;;3.13;;
59998;SDS011;45859;51.378;6.736;2024-01-10T01:09:49;6.50;;;3.07;;
59998;SDS011;45859;51.378;6.736;2024-01-10T01:12:15;11.07;;;3.37;;
59998;SDS011;45859;51.378;6.736;2024-01-10T01:14:42;5.40;;;2.43;;
59998;SDS011;45859;51.378;6.736;2024-01-10T01:17:08;4.73;;;2.70;;
59998;SDS011;45859;51.378;6.736;2024-01-10T01:19:34;5.60;;;1.97;;
59998;SDS011;45859;51.378;6.736;2024-01-10T01:22:00;4.73;;;1.57;;
59998;SDS011;45859;51.378;6.736;2024-01-10T01:24:26;4.23;;;2.47;;
59998;SDS011;45859;51.378;6.736;2024-01-10T01:26:52;3.17;;;1.57;;
59998;SDS011;45859;51.378;6.736;2024-01-10T01:29:18;3.77;;;2.20;;
59998;SDS011;45859;51.378;6.736;2024-01-10T01:31:44;11.60;;;2.80;;
59998;SDS011;45859;51.378;6.736;2024-01-10T01:34:10;6.40;;;2.13;;
59998;SDS011;45859;51.378;6.736;2024-01-10T01:36:36;5.00;;;2.37;;
59998;SDS011;45859;51.378;6.736;2024-01-10T01:39:02;5.20;;;2.57;;
59998;SDS011;45859;51.378;6.736;2024-01-10T01:41:28;4.30;;;2.00;;
59998;SDS011;45859;51.378;6.736;2024-01-10T01:43:54;6.17;;;2.17;;
59998;SDS011;45859;51.378;6.736;2024-01-10T01:46:20;3.60;;;2.13;;
59998;SDS011;45859;51.378;6.736;2024-01-10T01:48:47;4.83;;;1.90;;
59998;SDS011;45859;51.378;6.736;2024-01-10T01:51:13;6.10;;;2.07;;
59998;SDS011;45859;51.378;6.736;2024-01-10T01:53:40;6.00;;;2.77;;
59998;SDS011;45859;51.378;6.736;2024-01-10T01:56:08;5.63;;;2.57;;
59998;SDS011;45859;51.378;6.736;2024-01-10T01:58:35;5.37;;;2.03;;
59998;SDS011;45859;51.378;6.736;2024-01-10T02:01:02;6.90;;;2.33;;
59998;SDS011;45859;51.378;6.736;2024-01-10T02:03:29;4.77;;;2.10;;
59998;SDS011;45859;51.378;6.736;2024-01-10T02:05:56;4.40;;;1.80;;
59998;SDS011;45859;51.378;6.736;2024-01-10T02:08:22;6.47;;;2.93;;
59998;SDS011;45859;51.378;6.736;2024-01-10T02:10:48;5.50;;;1.97;;
59998;SDS011;45859;51.378;6.736;2024-01-10T02:13:15;3.63;;;1.37;;
59998;SDS011;45859;51.378;6.736;2024-01-10T02:15:41;4.03;;;1.73;;
59998;SDS011;45859;51.378;6.736;2024-01-10T02:18:08;7.67;;;2.63;;
59998;SDS011;45859;51.378;6.736;2024-01-10T02:20:38;5.10;;;2.53;;
59998;SDS011;45859;51.378;6.736;2024-01-10T02:23:04;6.40;;;2.13;;
59998;SDS011;45859;51.378;6.736;2024-01-10T02:25:30;5.07;;;3.20;;
59998;SDS011;45859;51.378;6.736;2024-01-10T02:27:56;3.47;;;1.63;;
59998;SDS011;45859;51.378;6.736;2024-01-10T02:30:22;5.07;;;3.00;;
59998;SDS011;45859;51.378;6.736;2024-01-10T02:32:48;9.70;;;3.87;;
59998;SDS011;45859;51.378;6.736;2024-01-10T02:35:14;6.87;;;2.70;;
59998;SDS011;45859;51.378;6.736;2024-01-10T02:37:40;7.87;;;2.63;;
59998;SDS011;45859;51.378;6.736;2024-01-10T02:40:06;3.20;;;1.27;;
59998;SDS011;45859;51.378;6.736;2024-01-10T02:42:33;4.93;;;2.97;;
59998;SDS011;45859;51.378;6.736;2024-01-10T02:45:00;6.00;;;0.93;;
59998;SDS011;45859;51.378;6.736;2024-01-10T02:47:26;2.43;;;1.27;;
59998;SDS011;45859;51.378;6.736;2024-01-10T02:49:54;10.03;;;3.03;;
59998;SDS011;45859;51.378;6.736;2024-01-10T02:52:20;7.67;;;3.50;;
59998;SDS011;45859;51.378;6.736;2024-01-10T02:54:46;3.63;;;2.43;;
59998;SDS011;45859;51.378;6.736;2024-01-10T02:57:12;4.97;;;2.87;;
59998;SDS011;45859;51.378;6.736;2024-01-10T02:59:38;8.40;;;2.33;;
59998;SDS011;45859;51.378;6.736;2024-01-10T03:02:04;5.57;;;2.87;;
59998;SDS011;45859;51.378;6.736;2024-01-10T03:04:30;3.70;;;2.33;;
59998;SDS011;45859;51.378;6.736;2024-01-10T03:06:56;4.67;;;1.97;;
59998;SDS011;45859;51.378;6.736;2024-01-10T03:09:23;6.53;;;3.17;;
59998;SDS011;45859;51.378;6.736;2024-01-10T03:14:16;4.37;;;2.00;;
59998;SDS011;45859;51.378;6.736;2024-01-10T03:16:42;3.20;;;1.47;;
59998;SDS011;45859;51.378;6.736;2024-01-10T03:19:08;5.00;;;2.67;;
59998;SDS011;45859;51.378;6.736;2024-01-10T03:21:34;4.90;;;3.10;;
59998;SDS011;45859;51.378;6.736;2024-01-10T03:24:01;7.10;;;3.57;;
59998;SDS011;45859;51.378;6.736;2024-01-10T03:26:27;11.30;;;3.50;;
59998;SDS011;45859;51.378;6.736;2024-01-10T03:28:55;4.93;;;2.77;;
59998;SDS011;45859;51.378;6.736;2024-01-10T03:31:22;4.13;;;2.47;;
59998;SDS011;45859;51.378;6.736;2024-01-10T03:33:48;5.50;;;3.07;;
59998;SDS011;45859;51.378;6.736;2024-01-10T03:36:15;6.13;;;3.07;;
59998;SDS011;45859;51.378;6.736;2024-01-10T03:38:42;9.33;;;2.90;;
59998;SDS011;45859;51.378;6.736;2024-01-10T03:41:15;7.37;;;2.97;;
59998;SDS011;45859;51.378;6.736;2024-01-10T03:43:41;4.80;;;2.57;;
59998;SDS011;45859;51.378;6.736;2024-01-10T03:46:07;8.63;;;2.53;;
59998;SDS011;45859;51.378;6.736;2024-01-10T03:48:34;6.17;;;2.97;;
59998;SDS011;45859;51.378;6.736;2024-01-10T03:51:00;6.00;;;2.07;;
59998;SDS011;45859;51.378;6.736;2024-01-10T03:53:26;2.07;;;1.20;;
59998;SDS011;45859;51.378;6.736;2024-01-10T03:55:52;4.47;;;1.87;;
59998;SDS011;45859;51.378;6.736;2024-01-10T03:58:18;8.27;;;3.23;;
59998;SDS011;45859;51.378;6.736;2024-01-10T04:00:44;6.53;;;2.27;;
59998;SDS011;45859;51.378;6.736;2024-01-10T04:03:09;11.93;;;2.27;;
59998;SDS011;45859;51.378;6.736;2024-01-10T04:05:35;4.93;;;2.67;;
59998;SDS011;45859;51.378;6.736;2024-01-10T04:08:01;3.37;;;2.50;;
59998;SDS011;45859;51.378;6.736;2024-01-10T04:10:28;9.47;;;3.63;;
59998;SDS011;45859;51.378;6.736;2024-01-10T04:12:54;4.40;;;1.90;;
59998;SDS011;45859;51.378;6.736;2024-01-10T04:15:20;2.67;;;1.80;;
59998;SDS011;45859;51.378;6.736;2024-01-10T04:17:47;5.27;;;1.43;;
59998;SDS011;45859;51.378;6.736;2024-01-10T04:20:13;5.33;;;3.13;;
59998;SDS011;45859;51.378;6.736;2024-01-10T04:22:39;4.83;;;2.53;;
59998;SDS011;45859;51.378;6.736;2024-01-10T04:25:06;8.00;;;3.10;;
59998;SDS011;45859;51.378;6.736;2024-01-10T04:27:32;3.00;;;1.40;;
59998;SDS011;45859;51.378;6.736;2024-01-10T04:29:58;12.03;;;3.10;;
59998;SDS011;45859;51.378;6.736;2024-01-10T04:32:24;7.30;;;3.77;;
59998;SDS011;45859;51.378;6.736;2024-01-10T04:34:50;4.70;;;2.67;;
59998;SDS011;45859;51.378;6.736;2024-01-10T04:37:16;12.13;;;3.60;;
59998;SDS011;45859;51.378;6.736;2024-01-10T04:39:42;4.73;;;2.63;;
59998;SDS011;45859;51.378;6.736;2024-01-10T04:42:08;7.20;;;3.83;;
59998;SDS011;45859;51.378;6.736;2024-01-10T04:44:34;8.10;;;3.47;;
59998;SDS011;45859;51.378;6.736;2024-01-10T04:47:00;6.43;;;3.43;;
59998;SDS011;45859;51.378;6.736;2024-01-10T04:49:26;8.57;;;3.30;;
59998;SDS011;45859;51.378;6.736;2024-01-10T04:51:52;8.33;;;3.03;;
59998;SDS011;45859;51.378;6.736;2024-01-10T04:54:18;6.53;;;2.50;;
59998;SDS011;45859;51.378;6.736;2024-01-10T04:56:45;10.10;;;3.20;;
59998;SDS011;45859;51.378;6.736;2024-01-10T04:59:11;2.73;;;2.03;;
59998;SDS011;45859;51.378;6.736;2024-01-10T05:01:37;9.73;;;3.13;;
59998;SDS011;45859;51.378;6.736;2024-01-10T05:04:03;8.50;;;3.83;;
59998;SDS011;45859;51.378;6.736;2024-01-10T05:06:29;7.97;;;2.87;;
59998;SDS011;45859;51.378;6.736;2024-01-10T05:08:56;7.20;;;3.07;;
59998;SDS011;45859;51.378;6.736;2024-01-10T05:11:23;4.00;;;2.00;;
59998;SDS011;45859;51.378;6.736;2024-01-10T05:13:51;10.97;;;3.23;;
59998;SDS011;45859;51.378;6.736;2024-01-10T05:16:17;7.90;;;3.33;;
59998;SDS011;45859;51.378;6.736;2024-01-10T05:18:43;8.57;;;4.47;;
59998;SDS011;45859;51.378;6.736;2024-01-10T05:21:09;4.43;;;2.93;;
59998;SDS011;45859;51.378;6.736;2024-01-10T05:23:35;10.40;;;3.37;;
59998;SDS011;45859;51.378;6.736;2024-01-10T05:26:03;9.50;;;2.77;;
59998;SDS011;45859;51.378;6.736;2024-01-10T05:28:29;6.50;;;3.47;;
59998;SDS011;45859;51.378;6.736;2024-01-10T05:30:55;6.60;;;3.23;;
59998;SDS011;45859;51.378;6.736;2024-01-10T05:33:21;4.03;;;2.23;;
59998;SDS011;45859;51.378;6.736;2024-01-10T05:35:47;9.93;;;3.67;;
59998;SDS011;45859;51.378;6.736;2024-01-10T05:38:13;2.33;;;1.90;;
59998;SDS011;45859;51.378;6.736;2024-01-10T05:40:39;8.43;;;3.73;;
59998;SDS011;45859;51.378;6.736;2024-01-10T05:43:05;2.13;;;1.23;;
59998;SDS011;45859;51.378;6.736;2024-01-10T05:45:32;5.07;;;2.63;;
59998;SDS011;45859;51.378;6.736;2024-01-10T05:47:58;5.47;;;3.27;;
59998;SDS011;45859;51.378;6.736;2024-01-10T05:50:24;7.57;;;3.63;;
59998;SDS011;45859;51.378;6.736;2024-01-10T05:52:50;9.70;;;3.70;;
59998;SDS011;45859;51.378;6.736;2024-01-10T05:55:16;13.90;;;2.47;;
59998;SDS011;45859;51.378;6.736;2024-01-10T05:57:42;7.40;;;3.20;;
59998;SDS011;45859;51.378;6.736;2024-01-10T06:00:08;3.00;;;1.67;;
59998;SDS011;45859;51.378;6.736;2024-01-10T06:02:36;7.83;;;4.20;;
59998;SDS011;45859;51.378;6.736;2024-01-10T06:05:04;8.23;;;3.90;;
59998;SDS011;45859;51.378;6.736;2024-01-10T06:07:34;8.43;;;3.07;;
59998;SDS011;45859;51.378;6.736;2024-01-10T06:10:00;7.50;;;3.00;;
59998;SDS011;45859;51.378;6.736;2024-01-10T06:12:26;5.13;;;2.77;;
59998;SDS011;45859;51.378;6.736;2024-01-10T06:14:53;10.13;;;4.17;;
59998;SDS011;45859;51.378;6.736;2024-01-10T06:17:19;6.13;;;2.77;;
59998;SDS011;45859;51.378;6.736;2024-01-10T06:19:45;8.60;;;3.57;;
59998;SDS011;45859;51.378;6.736;2024-01-10T06:22:11;4.03;;;1.90;;
59998;SDS011;45859;51.378;6.736;2024-01-10T06:24:37;8.87;;;3.43;;
59998;SDS011;45859;51.378;6.736;2024-01-10T06:27:03;9.80;;;4.40;;
59998;SDS011;45859;51.378;6.736;2024-01-10T06:29:31;9.37;;;4.07;;
59998;SDS011;45859;51.378;6.736;2024-01-10T06:31:57;9.33;;;3.87;;
59998;SDS011;45859;51.378;6.736;2024-01-10T06:34:26;12.43;;;3.80;;
59998;SDS011;45859;51.378;6.736;2024-01-10T06:36:52;4.97;;;2.80;;
59998;SDS011;45859;51.378;6.736;2024-01-10T06:39:17;10.17;;;4.03;;
59998;SDS011;45859;51.378;6.736;2024-01-10T06:41:46;7.83;;;3.30;;
59998;SDS011;45859;51.378;6.736;2024-01-10T06:44:13;5.57;;;2.57;;
59998;SDS011;45859;51.378;6.736;2024-01-10T06:46:39;3.00;;;1.33;;
59998;SDS011;45859;51.378;6.736;2024-01-10T06:49:05;12.20;;;4.57;;
59998;SDS011;45859;51.378;6.736;2024-01-10T06:51:32;6.60;;;3.33;;
59998;SDS011;45859;51.378;6.736;2024-01-10T06:53:58;7.37;;;3.33;;
59998;SDS011;45859;51.378;6.736;2024-01-10T06:56:32;7.88;;;4.30;;
59998;SDS011;45859;51.378;6.736;2024-01-10T06:58:58;11.38;;;4.25;;
59998;SDS011;45859;51.378;6.736;2024-01-10T07:01:24;7.80;;;4.60;;
59998;SDS011;45859;51.378;6.736;2024-01-10T07:03:51;2.27;;;1.40;;
59998;SDS011;45859;51.378;6.736;2024-01-10T07:06:18;8.33;;;3.17;;
59998;SDS011;45859;51.378;6.736;2024-01-10T07:08:44;10.23;;;4.03;;
59998;SDS011;45859;51.378;6.736;2024-01-10T07:11:10;10.73;;;4.17;;
59998;SDS011;45859;51.378;6.736;2024-01-10T07:13:36;5.90;;;3.23;;
59998;SDS011;45859;51.378;6.736;2024-01-10T07:16:02;7.40;;;3.97;;
59998;SDS011;45859;51.378;6.736;2024-01-10T07:18:29;7.80;;;3.90;;
59998;SDS011;45859;51.378;6.736;2024-01-10T07:20:55;9.00;;;4.23;;
59998;SDS011;45859;51.378;6.736;2024-01-10T07:23:21;11.43;;;3.93;;
59998;SDS011;45859;51.378;6.736;2024-01-10T07:25:48;6.97;;;3.83;;
59998;SDS011;45859;51.378;6.736;2024-01-10T07:28:14;7.37;;;2.97;;
59998;SDS011;45859;51.378;6.736;2024-01-10T07:30:40;5.33;;;3.27;;
59998;SDS011;45859;51.378;6.736;2024-01-10T07:33:06;7.73;;;3.53;;
59998;SDS011;45859;51.378;6.736;2024-01-10T07:35:33;4.27;;;2.20;;
59998;SDS011;45859;51.378;6.736;2024-01-10T07:37:59;7.70;;;4.53;;
59998;SDS011;45859;51.378;6.736;2024-01-10T07:40:25;4.00;;;2.43;;
59998;SDS011;45859;51.378;6.736;2024-01-10T07:42:51;6.40;;;2.57;;
59998;SDS011;45859;51.378;6.736;2024-01-10T07:45:17;17.27;;;6.00;;
59998;SDS011;45859;51.378;6.736;2024-01-10T07:47:43;8.67;;;4.20;;
59998;SDS011;45859;51.378;6.736;2024-01-10T07:50:09;12.73;;;5.33;;
59998;SDS011;45859;51.378;6.736;2024-01-10T07:52:39;8.53;;;3.13;;
59998;SDS011;45859;51.378;6.736;2024-01-10T07:55:05;9.67;;;5.10;;
59998;SDS011;45859;51.378;6.736;2024-01-10T07:57:33;7.80;;;2.87;;
59998;SDS011;45859;51.378;6.736;2024-01-10T07:59:59;10.07;;;4.03;;
59998;SDS011;45859;51.378;6.736;2024-01-10T08:02:25;12.73;;;3.87;;
59998;SDS011;45859;51.378;6.736;2024-01-10T08:04:53;9.73;;;4.93;;
59998;SDS011;45859;51.378;6.736;2024-01-10T08:07:19;8.80;;;3.30;;
59998;SDS011;45859;51.378;6.736;2024-01-10T08:09:45;10.63;;;4.03;;
59998;SDS011;45859;51.378;6.736;2024-01-10T08:12:12;14.50;;;4.90;;
59998;SDS011;45859;51.378;6.736;2024-01-10T08:14:39;14.27;;;4.10;;
59998;SDS011;45859;51.378;6.736;2024-01-10T08:17:05;9.80;;;4.30;;
59998;SDS011;45859;51.378;6.736;2024-01-10T08:19:32;11.07;;;5.23;;
59998;SDS011;45859;51.378;6.736;2024-01-10T08:21:58;11.17;;;4.80;;
59998;SDS011;45859;51.378;6.736;2024-01-10T08:24:24;15.70;;;6.37;;
59998;SDS011;45859;51.378;6.736;2024-01-10T08:26:50;13.43;;;4.13;;
59998;SDS011;45859;51.378;6.736;2024-01-10T08:29:19;13.03;;;4.83;;
59998;SDS011;45859;51.378;6.736;2024-01-10T08:31:45;7.77;;;3.97;;
59998;SDS011;45859;51.378;6.736;2024-01-10T08:34:11;11.93;;;4.07;;
59998;SDS011;45859;51.378;6.736;2024-01-10T08:36:37;10.57;;;4.40;;
59998;SDS011;45859;51.378;6.736;2024-01-10T08:39:03;11.57;;;4.67;;
59998;SDS011;45859;51.378;6.736;2024-01-10T08:41:30;9.73;;;3.53;;
59998;SDS011;45859;51.378;6.736;2024-01-10T08:43:56;8.73;;;4.63;;
59998;SDS011;45859;51.378;6.736;2024-01-10T08:46:22;7.83;;;3.60;;
59998;SDS011;45859;51.378;6.736;2024-01-10T08:48:49;13.93;;;5.73;;
59998;SDS011;45859;51.378;6.736;2024-01-10T08:51:15;8.43;;;4.70;;
59998;SDS011;45859;51.378;6.736;2024-01-10T08:53:42;15.67;;;5.20;;
59998;SDS011;45859;51.378;6.736;2024-01-10T08:56:08;11.00;;;4.57;;
59998;SDS011;45859;51.378;6.736;2024-01-10T08:58:35;14.83;;;6.63;;
59998;SDS011;45859;51.378;6.736;2024-01-10T09:01:01;10.83;;;4.43;;
59998;SDS011;45859;51.378;6.736;2024-01-10T09:03:28;11.47;;;5.07;;
59998;SDS011;45859;51.378;6.736;2024-01-10T09:05:54;9.37;;;3.47;;
59998;SDS011;45859;51.378;6.736;2024-01-10T09:08:20;7.27;;;2.80;;
59998;SDS011;45859;51.378;6.736;2024-01-10T09:10:46;15.90;;;6.83;;
59998;SDS011;45859;51.378;6.736;2024-01-10T09:13:14;6.93;;;3.10;;
59998;SDS011;45859;51.378;6.736;2024-01-10T09:15:40;11.37;;;5.27;;
59998;SDS011;45859;51.378;6.736;2024-01-10T09:18:06;14.03;;;6.03;;
59998;SDS011;45859;51.378;6.736;2024-01-10T09:20:32;10.73;;;4.97;;
59998;SDS011;45859;51.378;6.736;2024-01-10T09:22:58;11.70;;;4.90;;
59998;SDS011;45859;51.378;6.736;2024-01-10T09:25:25;8.07;;;3.90;;
59998;SDS011;45859;51.378;6.736;2024-01-10T09:27:51;17.53;;;7.13;;
59998;SDS011;45859;51.378;6.736;2024-01-10T09:30:17;9.33;;;4.87;;
59998;SDS011;45859;51.378;6.736;2024-01-10T09:32:43;8.57;;;3.47;;
59998;SDS011;45859;51.378;6.736;2024-01-10T09:35:09;14.20;;;5.13;;
59998;SDS011;45859;51.378;6.736;2024-01-10T09:37:36;10.20;;;5.70;;
59998;SDS011;45859;51.378;6.736;2024-01-10T09:40:02;13.07;;;5.57;;
59998;SDS011;45859;51.378;6.736;2024-01-10T09:42:29;18.03;;;5.90;;
59998;SDS011;45859;51.378;6.736;2024-01-10T09:44:56;10.80;;;3.53;;
59998;SDS011;45859;51.378;6.736;2024-01-10T09:47:23;16.97;;;7.67;;
59998;SDS011;45859;51.378;6.736;2024-01-10T09:49:50;15.80;;;5.00;;
59998;SDS011;45859;51.378;6.736;2024-01-10T09:52:19;9.53;;;4.43;;
59998;SDS011;45859;51.378;6.736;2024-01-10T09:54:50;12.67;;;6.23;;
59998;SDS011;45859;51.378;6.736;2024-01-10T09:57:19;15.48;;;5.82;;
59998;SDS011;45859;51.378;6.736;2024-01-10T09:59:46;14.10;;;4.70;;
59998;SDS011;45859;51.378;6.736;2024-01-10T10:02:13;13.63;;;6.47;;
59998;SDS011;45859;51.378;6.736;2024-01-10T10:04:41;12.97;;;5.47;;
59998;SDS011;45859;51.378;6.736;2024-01-10T10:07:18;13.77;;;3.87;;
59998;SDS011;45859;51.378;6.736;2024-01-10T10:09:44;9.00;;;5.00;;
59998;SDS011;45859;51.378;6.736;2024-01-10T10:12:10;8.47;;;4.70;;
59998;SDS011;45859;51.378;6.736;2024-01-10T10:14:36;17.87;;;5.27;;
59998;SDS011;45859;51.378;6.736;2024-01-10T10:17:15;14.13;;;5.40;;
59998;SDS011;45859;51.378;6.736;2024-01-10T10:19:41;15.50;;;5.63;;
59998;SDS011;45859;51.378;6.736;2024-01-10T10:22:08;12.83;;;5.50;;
59998;SDS011;45859;51.378;6.736;2024-01-10T10:24:34;13.20;;;6.07;;
59998;SDS011;45859;51.378;6.736;2024-01-10T10:27:01;16.67;;;7.17;;
59998;SDS011;45859;51.378;6.736;2024-01-10T10:29:27;13.47;;;4.83;;
59998;SDS011;45859;51.378;6.736;2024-01-10T10:31:52;13.23;;;4.87;;
59998;SDS011;45859;51.378;6.736;2024-01-10T10:34:23;8.87;;;4.93;;
59998;SDS011;45859;51.378;6.736;2024-01-10T10:36:48;11.13;;;5.80;;
59998;SDS011;45859;51.378;6.736;2024-01-10T10:39:17;15.53;;;5.23;;
59998;SDS011;45859;51.378;6.736;2024-01-10T10:41:43;20.87;;;5.77;;
59998;SDS011;45859;51.378;6.736;2024-01-10T10:44:10;8.70;;;4.00;;
59998;SDS011;45859;51.378;6.736;2024-01-10T10:46:38;7.37;;;3.60;;
59998;SDS011;45859;51.378;6.736;2024-01-10T10:49:06;7.03;;;3.20;;
59998;SDS011;45859;51.378;6.736;2024-01-10T10:51:38;14.40;;;6.03;;
59998;SDS011;45859;51.378;6.736;2024-01-10T10:54:04;14.60;;;5.17;;
59998;SDS011;45859;51.378;6.736;2024-01-10T10:56:33;15.73;;;7.30;;
59998;SDS011;45859;51.378;6.736;2024-01-10T10:59:02;11.10;;;5.07;;
59998;SDS011;45859;51.378;6.736;2024-01-10T11:01:28;19.93;;;7.47;;
59998;SDS011;45859;51.378;6.736;2024-01-10T11:03:55;17.97;;;6.30;;
59998;SDS011;45859;51.378;6.736;2024-01-10T11:06:22;13.77;;;5.70;;
59998;SDS011;45859;51.378;6.736;2024-01-10T11:08:50;5.93;;;3.03;;
59998;SDS011;45859;51.378;6.736;2024-01-10T11:14:25;5.33;;;3.17;;
59998;SDS011;45859;51.378;6.736;2024-01-10T11:19:58;4.10;;;1.80;;
59998;SDS011;45859;51.378;6.736;2024-01-10T11:25:12;13.63;;;6.93;;
59998;SDS011;45859;51.378;6.736;2024-01-10T11:27:39;15.40;;;7.00;;
59998;SDS011;45859;51.378;6.736;2024-01-10T11:30:05;12.47;;;5.80;;
59998;SDS011;45859;51.378;6.736;2024-01-10T11:32:31;15.33;;;6.07;;
59998;SDS011;45859;51.378;6.736;2024-01-10T11:35:03;11.77;;;5.40;;
59998;SDS011;45859;51.378;6.736;2024-01-10T11:37:41;10.23;;;3.37;;
59998;SDS011;45859;51.378;6.736;2024-01-10T11:40:08;14.17;;;5.90;;
59998;SDS011;45859;51.378;6.736;2024-01-10T11:42:44;13.93;;;6.20;;
59998;SDS011;45859;51.378;6.736;2024-01-10T11:45:16;16.80;;;6.03;;
59998;SDS011;45859;51.378;6.736;2024-01-10T11:47:59;12.07;;;5.80;;
59998;SDS011;45859;51.378;6.736;2024-01-10T11:50:25;9.53;;;5.10;;
59998;SDS011;45859;51.378;6.736;2024-01-10T11:52:54;3.73;;;2.37;;
59998;SDS011;45859;51.378;6.736;2024-01-10T11:58:08;12.63;;;5.07;;
59998;SDS011;45859;51.378;6.736;2024-01-10T12:00:35;11.38;;;5.50;;
59998;SDS011;45859;51.378;6.736;2024-01-10T12:03:01;4.83;;;3.03;;
59998;SDS011;45859;51.378;6.736;2024-01-10T12:05:27;15.80;;;6.23;;
59998;SDS011;45859;51.378;6.736;2024-01-10T12:07:54;10.13;;;4.13;;
59998;SDS011;45859;51.378;6.736;2024-01-10T12:10:20;4.73;;;2.67;;
59998;SDS011;45859;51.378;6.736;2024-01-10T12:12:46;10.57;;;3.53;;
59998;SDS011;45859;51.378;6.736;2024-01-10T12:15:12;16.17;;;7.00;;
59998;SDS011;45859;51.378;6.736;2024-01-10T12:17:38;17.20;;;5.97;;
59998;SDS011;45859;51.378;6.736;2024-01-10T12:20:04;15.83;;;6.47;;
59998;SDS011;45859;51.378;6.736;2024-01-10T12:22:31;14.40;;;6.07;;
59998;SDS011;45859;51.378;6.736;2024-01-10T12:25:03;11.80;;;5.47;;
59998;SDS011;45859;51.378;6.736;2024-01-10T12:27:29;7.67;;;3.77;;
59998;SDS011;45859;51.378;6.736;2024-01-10T12:29:55;15.07;;;6.37;;
59998;SDS011;45859;51.378;6.736;2024-01-10T12:32:23;17.33;;;6.57;;
59998;SDS011;45859;51.378;6.736;2024-01-10T12:34:48;13.27;;;5.80;;
59998;SDS011;45859;51.378;6.736;2024-01-10T12:37:14;13.30;;;5.53;;
59998;SDS011;45859;51.378;6.736;2024-01-10T12:39:40;8.63;;;4.33;;
59998;SDS011;45859;51.378;6.736;2024-01-10T12:42:06;19.03;;;7.00;;
59998;SDS011;45859;51.378;6.736;2024-01-10T12:44:33;17.53;;;7.53;;
59998;SDS011;45859;51.378;6.736;2024-01-10T12:46:59;16.20;;;8.20;;
59998;SDS011;45859;51.378;6.736;2024-01-10T12:49:25;19.50;;;7.67;;
59998;SDS011;45859;51.378;6.736;2024-01-10T12:51:51;16.93;;;7.93;;
59998;SDS011;45859;51.378;6.736;2024-01-10T12:54:17;17.30;;;6.57;;
59998;SDS011;45859;51.378;6.736;2024-01-10T12:56:43;17.57;;;7.80;;
59998;SDS011;45859;51.378;6.736;2024-01-10T12:59:10;16.40;;;6.77;;
59998;SDS011;45859;51.378;6.736;2024-01-10T13:01:36;17.10;;;8.00;;
59998;SDS011;45859;51.378;6.736;2024-01-10T13:04:03;15.73;;;7.27;;
59998;SDS011;45859;51.378;6.736;2024-01-10T13:06:29;18.47;;;8.23;;
59998;SDS011;45859;51.378;6.736;2024-01-10T13:08:55;14.07;;;7.03;;
59998;SDS011;45859;51.378;6.736;2024-01-10T13:11:21;16.47;;;7.33;;
59998;SDS011;45859;51.378;6.736;2024-01-10T13:13:47;14.57;;;6.23;;
59998;SDS011;45859;51.378;6.736;2024-01-10T13:16:13;20.13;;;8.30;;
59998;SDS011;45859;51.378;6.736;2024-01-10T13:18:39;15.63;;;6.93;;
59998;SDS011;45859;51.378;6.736;2024-01-10T13:21:05;16.53;;;6.80;;
59998;SDS011;45859;51.378;6.736;2024-01-10T13:23:31;18.50;;;8.30;;
59998;SDS011;45859;51.378;6.736;2024-01-10T13:25:58;22.20;;;8.13;;
59998;SDS011;45859;51.378;6.736;2024-01-10T13:28:24;16.27;;;7.13;;
59998;SDS011;45859;51.378;6.736;2024-01-10T13:30:50;26.23;;;9.10;;
59998;SDS011;45859;51.378;6.736;2024-01-10T13:33:16;19.43;;;8.30;;
59998;SDS011;45859;51.378;6.736;2024-01-10T13:35:43;19.00;;;7.67;;
59998;SDS011;45859;51.378;6.736;2024-01-10T13:38:09;24.20;;;9.13;;
59998;SDS011;45859;51.378;6.736;2024-01-10T13:40:35;23.33;;;8.27;;
59998;SDS011;45859;51.378;6.736;2024-01-10T13:43:03;20.67;;;9.00;;
59998;SDS011;45859;51.378;6.736;2024-01-10T13:45:30;18.30;;;7.83;;
59998;SDS011;45859;51.378;6.736;2024-01-10T13:47:56;19.03;;;7.00;;
59998;SDS011;45859;51.378;6.736;2024-01-10T13:50:22;19.23;;;8.20;;
59998;SDS011;45859;51.378;6.736;2024-01-10T13:52:50;17.93;;;7.80;;
59998;SDS011;45859;51.378;6.736;2024-01-10T13:55:16;18.07;;;8.57;;
59998;SDS011;45859;51.378;6.736;2024-01-10T13:57:42;21.57;;;8.20;;
59998;SDS011;45859;51.378;6.736;2024-01-10T14:00:08;23.77;;;10.77;;
59998;SDS011;45859;51.378;6.736;2024-01-10T14:02:39;15.37;;;6.30;;
59998;SDS011;45859;51.378;6.736;2024-01-10T14:05:05;18.47;;;9.17;;
59998;SDS011;45859;51.378;6.736;2024-01-10T14:07:32;18.03;;;7.73;;
59998;SDS011;45859;51.378;6.736;2024-01-10T14:09:58;19.20;;;8.77;;
59998;SDS011;45859;51.378;6.736;2024-01-10T14:12:23;25.30;;;10.00;;
59998;SDS011;45859;51.378;6.736;2024-01-10T14:14:50;24.60;;;10.33;;
59998;SDS011;45859;51.378;6.736;2024-01-10T14:17:15;30.57;;;11.37;;
59998;SDS011;45859;51.378;6.736;2024-01-10T14:19:41;22.43;;;10.03;;
59998;SDS011;45859;51.378;6.736;2024-01-10T14:22:09;23.10;;;8.87;;
59998;SDS011;45859;51.378;6.736;2024-01-10T14:24:35;24.33;;;9.40;;
59998;SDS011;45859;51.378;6.736;2024-01-10T14:27:01;25.77;;;10.23;;
59998;SDS011;45859;51.378;6.736;2024-01-10T14:29:26;17.47;;;7.77;;
59998;SDS011;45859;51.378;6.736;2024-01-10T14:31:52;18.63;;;8.63;;
59998;SDS011;45859;51.378;6.736;2024-01-10T14:34:18;21.53;;;8.50;;
59998;SDS011;45859;51.378;6.736;2024-01-10T14:36:45;23.00;;;9.17;;
59998;SDS011;45859;51.378;6.736;2024-01-10T14:39:11;19.30;;;9.33;;
59998;SDS011;45859;51.378;6.736;2024-01-10T14:41:38;20.30;;;8.77;;
59998;SDS011;45859;51.378;6.736;2024-01-10T14:44:07;20.15;;;8.48;;
59998;SDS011;45859;51.378;6.736;2024-01-10T14:46:34;25.87;;;8.53;;
59998;SDS011;45859;51.378;6.736;2024-01-10T14:49:00;26.47;;;8.87;;
59998;SDS011;45859;51.378;6.736;2024-01-10T14:51:26;18.00;;;8.03;;